Weather at Nea Anchialos Airport

Public forecast

Using degrees Celsius for public forecast. Weather courtesy of forecast.io.

Current aviation weather report (METAR) for Nea Anchialos Airport

Retrieved 2021/01/15 21:50 UTC (18 minutes ago):

LGBL 152150Z 00000KT 9999 -RA FEW010 BKN025 OVC080 04/01 Q1014 BLU

Closest aviation forecast (TAF) to Nea Anchialos Airport

Forecast is more than 12 hours old.

Closest forecast is Skiathos Island National Airport, 33.1 nm (61.3 km) E. Retrieved 2012/09/27 00:18 UTC (8 years ago):

TAF LGSK 272300Z 2800/2909 01010KT 9999 FEW020